createdAt,value
2018-02-01T00:00:08.849Z,88.41
2018-02-01T00:01:36.012Z,88.52
2018-02-01T00:03:07.226Z,88.49
2018-02-01T00:04:34.186Z,88.48
2018-02-01T00:05:57.439Z,88.39
2018-02-01T00:07:28.731Z,88.51
2018-02-01T00:08:51.882Z,88.62
2018-02-01T00:10:19.136Z,88.16
2018-02-01T00:11:46.506Z,88.22
2018-02-01T00:13:13.716Z,88.11
2018-02-01T00:14:41.017Z,88.36
2018-02-01T00:16:11.970Z,88.30
2018-02-01T00:17:35.274Z,88.16
2018-02-01T00:19:06.326Z,87.94
2018-02-01T00:20:33.663Z,88.24
2018-02-01T00:21:57.082Z,87.84
2018-02-01T00:23:28.038Z,87.78
2018-02-01T00:24:55.130Z,88.05
2018-02-01T00:26:18.434Z,88.04
2018-02-01T00:27:45.630Z,87.99
2018-02-01T00:29:12.674Z,87.94
2018-02-01T00:30:43.963Z,87.99
2018-02-01T00:32:11.218Z,88.28
2018-02-01T00:33:34.395Z,88.19
2018-02-01T00:35:01.635Z,88.15
2018-02-01T00:36:28.691Z,88.00
2018-02-01T00:37:59.741Z,87.95
2018-02-01T00:39:23.096Z,87.89
2018-02-01T00:40:54.140Z,87.95
2018-02-01T00:42:17.441Z,87.83
2018-02-01T00:43:48.877Z,87.96
2018-02-01T00:45:11.924Z,88.36
2018-02-01T00:46:38.967Z,88.50
2018-02-01T00:48:06.356Z,88.21
2018-02-01T00:49:37.333Z,88.19
2018-02-01T00:51:04.557Z,88.10
2018-02-01T00:52:31.813Z,88.04
2018-02-01T00:53:54.749Z,88.07
2018-02-01T00:55:21.901Z,87.80
2018-02-01T00:56:49.196Z,87.64
2018-02-01T00:58:16.435Z,87.85
2018-02-01T00:59:43.637Z,87.83
2018-02-01T01:01:14.460Z,88.25
2018-02-01T01:02:41.528Z,88.36
2018-02-01T01:04:08.531Z,87.96
2018-02-01T01:05:31.801Z,88.14
2018-02-01T01:06:58.914Z,88.25
2018-02-01T01:08:29.887Z,88.06
2018-02-01T01:09:57.177Z,87.67
2018-02-01T01:11:20.474Z,87.75
2018-02-01T01:12:51.768Z,87.89
2018-02-01T01:14:18.931Z,87.89
2018-02-01T01:15:46.306Z,88.03
2018-02-01T01:17:09.204Z,88.58
2018-02-01T01:18:40.576Z,88.32
2018-02-01T01:20:07.665Z,88.14
2018-02-01T01:21:30.582Z,88.26
2018-02-01T01:22:57.895Z,88.01
2018-02-01T01:24:24.999Z,87.76
2018-02-01T01:25:52.223Z,87.80
2018-02-01T01:27:19.115Z,87.84
2018-02-01T01:28:46.333Z,87.93
2018-02-01T01:30:13.484Z,87.76
2018-02-01T01:31:44.679Z,87.67
2018-02-01T01:33:07.798Z,87.43
2018-02-01T01:34:38.853Z,87.48
2018-02-01T01:36:06.074Z,87.40
2018-02-01T01:37:28.922Z,87.22
2018-02-01T01:38:56.133Z,87.36
2018-02-01T01:40:27.347Z,87.28
2018-02-01T01:41:50.488Z,87.82
2018-02-01T01:43:17.794Z,87.41
2018-02-01T01:44:45.068Z,87.39
2018-02-01T01:46:16.298Z,87.11
2018-02-01T01:47:39.464Z,87.37
2018-02-01T01:49:06.831Z,87.60
2018-02-01T01:50:34.035Z,87.37
2018-02-01T01:52:05.131Z,87.23
2018-02-01T01:53:32.344Z,87.13
2018-02-01T01:54:55.631Z,86.91
2018-02-01T01:56:22.666Z,87.52
2018-02-01T01:57:49.862Z,86.98
2018-02-01T01:59:17.225Z,86.96
2018-02-01T02:00:44.465Z,86.73
2018-02-01T02:02:11.783Z,86.84
2018-02-01T02:03:38.685Z,86.92
2018-02-01T02:05:09.876Z,86.81
2018-02-01T02:06:37.046Z,87.41
2018-02-01T02:08:00.295Z,87.37
2018-02-01T02:09:31.467Z,87.43
2018-02-01T02:10:54.660Z,87.56
2018-02-01T02:12:21.795Z,87.36
2018-02-01T02:13:48.900Z,87.30
2018-02-01T02:15:16.091Z,87.36
2018-02-01T02:16:47.400Z,87.24
2018-02-01T02:18:10.549Z,87.17
2018-02-01T02:19:37.731Z,87.04
2018-02-01T02:21:08.779Z,87.06
2018-02-01T02:22:31.927Z,86.94
2018-02-01T02:24:02.855Z,86.87
2018-02-01T02:25:30.016Z,86.86
2018-02-01T02:26:57.392Z,86.80
2018-02-01T02:28:24.705Z,87.09
2018-02-01T02:29:47.887Z,87.27
2018-02-01T02:31:15.159Z,87.15
2018-02-01T02:32:46.533Z,86.90
2018-02-01T02:34:09.687Z,87.11
2018-02-01T02:35:36.892Z,86.98
2018-02-01T02:37:08.117Z,86.93
2018-02-01T02:38:31.242Z,86.94
2018-02-01T02:40:02.502Z,87.02
2018-02-01T02:41:29.861Z,87.05
2018-02-01T02:42:57.202Z,86.85
2018-02-01T02:44:20.447Z,86.84
2018-02-01T02:45:47.684Z,86.66
2018-02-01T02:47:18.974Z,86.57
2018-02-01T02:48:42.077Z,86.49
2018-02-01T02:50:13.386Z,86.34
2018-02-01T02:51:36.538Z,86.53
2018-02-01T02:53:07.855Z,86.56
2018-02-01T02:54:34.847Z,86.43
2018-02-01T02:55:58.141Z,86.44
2018-02-01T02:57:25.346Z,86.28
2018-02-01T02:58:52.504Z,86.41
2018-02-01T03:00:19.713Z,86.58
2018-02-01T03:01:46.944Z,86.39
2018-02-01T03:03:18.226Z,86.55
2018-02-01T03:04:45.356Z,86.50
2018-02-01T03:06:12.586Z,87.20
2018-02-01T03:07:39.757Z,87.18
2018-02-01T03:09:07.093Z,87.36
2018-02-01T03:10:30.101Z,87.02
2018-02-01T03:11:57.307Z,86.96
2018-02-01T03:13:24.531Z,87.04
2018-02-01T03:14:55.594Z,86.64
2018-02-01T03:16:22.800Z,86.67
2018-02-01T03:17:45.797Z,86.71
2018-02-01T03:19:16.895Z,86.91
2018-02-01T03:20:40.189Z,86.88
2018-02-01T03:22:07.269Z,86.49
2018-02-01T03:23:38.338Z,86.38
2018-02-01T03:25:05.386Z,86.36
2018-02-01T03:26:32.446Z,86.67
2018-02-01T03:27:55.396Z,86.35
2018-02-01T03:29:22.489Z,86.39
2018-02-01T03:30:49.531Z,86.97
2018-02-01T03:32:16.887Z,86.73
2018-02-01T03:33:44.145Z,86.85
2018-02-01T03:35:15.252Z,87.00
2018-02-01T03:36:38.768Z,86.87
2018-02-01T03:38:06.026Z,87.27
2018-02-01T03:39:33.128Z,87.54
2018-02-01T03:41:04.141Z,87.56
2018-02-01T03:42:27.440Z,87.79
2018-02-01T03:43:54.534Z,87.98
2018-02-01T03:45:21.680Z,87.67
2018-02-01T03:46:48.675Z,87.44
2018-02-01T03:48:15.909Z,87.56
2018-02-01T03:49:47.023Z,87.38
2018-02-01T03:51:14.300Z,87.71
2018-02-01T03:52:41.509Z,87.65
2018-02-01T03:54:04.884Z,87.53
2018-02-01T03:55:35.879Z,87.69
2018-02-01T03:57:02.829Z,87.66
2018-02-01T03:58:26.083Z,87.25
2018-02-01T03:59:53.435Z,87.33
2018-02-01T04:01:20.654Z,87.40
2018-02-01T04:02:51.805Z,87.21
2018-02-01T04:04:15.025Z,87.02
2018-02-01T04:05:42.178Z,86.83
2018-02-01T04:07:13.424Z,86.88
2018-02-01T04:08:40.679Z,86.91
2018-02-01T04:10:03.959Z,86.86
2018-02-01T04:11:34.865Z,86.55
2018-02-01T04:13:01.999Z,87.09
2018-02-01T04:14:25.096Z,87.02
2018-02-01T04:15:56.405Z,86.52
2018-02-01T04:17:19.597Z,86.82
2018-02-01T04:18:46.818Z,86.59
2018-02-01T04:20:18.304Z,86.80
2018-02-01T04:21:45.430Z,86.35
2018-02-01T04:23:12.478Z,86.46
2018-02-01T04:24:39.693Z,86.63
2018-02-01T04:26:06.722Z,87.26
2018-02-01T04:27:29.965Z,87.41
2018-02-01T04:29:01.204Z,86.90
2018-02-01T04:30:24.499Z,86.76
2018-02-01T04:31:51.628Z,86.38
2018-02-01T04:33:18.678Z,86.43
2018-02-01T04:34:45.852Z,86.21
2018-02-01T04:36:13.064Z,86.43
2018-02-01T04:37:40.342Z,86.38
2018-02-01T04:39:07.638Z,86.42
2018-02-01T04:40:38.749Z,86.33
2018-02-01T04:42:02.022Z,86.34
2018-02-01T04:43:29.078Z,86.28
2018-02-01T04:45:00.319Z,86.31
2018-02-01T04:46:23.601Z,86.16
2018-02-01T04:47:54.843Z,86.25
2018-02-01T04:49:17.729Z,86.92
2018-02-01T04:50:44.909Z,86.78
2018-02-01T04:52:12.269Z,86.61
2018-02-01T04:53:39.374Z,86.24
2018-02-01T04:55:06.604Z,86.25
2018-02-01T04:56:33.635Z,86.09
2018-02-01T04:58:00.632Z,85.84
2018-02-01T04:59:27.887Z,86.06
2018-02-01T05:00:58.816Z,86.15
2018-02-01T05:02:21.965Z,86.16
2018-02-01T05:03:49.318Z,86.32
2018-02-01T05:05:20.527Z,85.95
2018-02-01T05:06:43.778Z,85.83
2018-02-01T05:08:11.113Z,85.90
2018-02-01T05:09:38.212Z,85.73
2018-02-01T05:11:09.294Z,85.78
2018-02-01T05:12:32.533Z,85.51
2018-02-01T05:14:03.691Z,85.58
2018-02-01T05:15:26.912Z,85.60
2018-02-01T05:16:58.072Z,85.67
2018-02-01T05:18:25.248Z,85.59
2018-02-01T05:19:48.714Z,85.69
2018-02-01T05:21:15.930Z,85.67
2018-02-01T05:22:43.347Z,85.67
2018-02-01T05:24:10.550Z,85.78
2018-02-01T05:25:41.683Z,85.78
2018-02-01T05:27:08.956Z,85.89
2018-02-01T05:28:31.984Z,85.97
2018-02-01T05:29:58.738Z,85.91
2018-02-01T05:31:25.892Z,86.04
2018-02-01T05:32:53.205Z,86.01
2018-02-01T05:34:24.477Z,86.02
2018-02-01T05:35:47.724Z,86.01
2018-02-01T05:37:14.601Z,86.26
2018-02-01T05:38:41.774Z,86.24
2018-02-01T05:40:08.939Z,86.22
2018-02-01T05:41:36.058Z,86.30
2018-02-01T05:43:03.133Z,86.42
2018-02-01T05:44:29.922Z,86.39
2018-02-01T05:45:57.178Z,86.32
2018-02-01T05:47:24.058Z,86.27
2018-02-01T05:48:51.335Z,86.34
2018-02-01T05:50:22.519Z,86.45
2018-02-01T05:51:45.686Z,86.42
2018-02-01T05:53:13.032Z,86.41
2018-02-01T05:54:44.032Z,86.49
2018-02-01T05:56:07.085Z,86.31
2018-02-01T05:57:34.320Z,86.31
2018-02-01T05:59:01.210Z,86.26
2018-02-01T06:00:27.858Z,86.28
2018-02-01T06:01:59.101Z,86.36
2018-02-01T06:03:22.348Z,86.44
2018-02-01T06:04:53.512Z,86.50
2018-02-01T06:06:20.856Z,86.42
2018-02-01T06:07:47.923Z,86.45
2018-02-01T06:09:11.192Z,86.48
2018-02-01T06:10:38.548Z,86.39
2018-02-01T06:12:09.418Z,86.60
2018-02-01T06:13:32.489Z,86.49
2018-02-01T06:15:03.684Z,86.47
2018-02-01T06:16:27.011Z,86.56
2018-02-01T06:17:58.240Z,86.80
2018-02-01T06:19:25.503Z,86.97
2018-02-01T06:20:52.711Z,86.89
2018-02-01T06:22:16.062Z,86.99
2018-02-01T06:23:43.116Z,87.10
2018-02-01T06:25:10.471Z,87.16
2018-02-01T06:26:41.589Z,87.20
2018-02-01T06:28:08.751Z,87.33
2018-02-01T06:29:31.682Z,87.33
2018-02-01T06:31:03.562Z,87.43
2018-02-01T06:32:29.745Z,87.47
2018-02-01T06:33:52.888Z,87.50
2018-02-01T06:35:20.184Z,87.43
2018-02-01T06:36:47.363Z,87.41
2018-02-01T06:38:14.590Z,87.43
2018-02-01T06:39:45.443Z,87.40
2018-02-01T06:41:08.658Z,87.41
2018-02-01T06:42:39.837Z,87.42
2018-02-01T06:44:06.848Z,87.51
2018-02-01T06:45:29.950Z,87.73
2018-02-01T06:46:57.225Z,87.59
2018-02-01T06:48:24.460Z,87.72
2018-02-01T06:49:55.633Z,87.62
2018-02-01T06:51:22.903Z,87.62
2018-02-01T06:52:50.139Z,87.70
2018-02-01T06:54:17.315Z,87.67
2018-02-01T06:55:40.614Z,87.75
2018-02-01T06:57:07.886Z,87.70
2018-02-01T06:58:34.934Z,87.81
2018-02-01T07:00:02.137Z,87.68
2018-02-01T07:01:29.302Z,87.87
2018-02-01T07:03:00.052Z,87.75
2018-02-01T07:04:26.961Z,87.78
2018-02-01T07:05:54.274Z,87.61
2018-02-01T07:07:17.211Z,87.62
2018-02-01T07:08:44.570Z,87.59
2018-02-01T07:10:15.711Z,87.61
2018-02-01T07:11:42.856Z,87.61
2018-02-01T07:13:10.091Z,87.66
2018-02-01T07:14:37.143Z,87.71
2018-02-01T07:15:59.952Z,87.65
2018-02-01T07:17:31.170Z,87.69
2018-02-01T07:18:54.260Z,87.72
2018-02-01T07:20:21.501Z,87.78
2018-02-01T07:21:52.674Z,87.81
2018-02-01T07:23:16.020Z,87.66
2018-02-01T07:24:47.074Z,87.66
2018-02-01T07:26:10.306Z,87.65
2018-02-01T07:27:41.382Z,87.63
2018-02-01T07:29:04.673Z,87.56
2018-02-01T07:30:31.857Z,87.66
2018-02-01T07:31:59.011Z,87.63
2018-02-01T07:33:26.170Z,87.63
2018-02-01T07:34:53.338Z,87.65
2018-02-01T07:36:20.186Z,87.68
2018-02-01T07:37:47.140Z,87.80
2018-02-01T07:39:18.584Z,87.77
2018-02-01T07:40:45.712Z,87.77
2018-02-01T07:42:08.894Z,87.69
2018-02-01T07:43:40.173Z,87.66
2018-02-01T07:45:07.283Z,87.61
2018-02-01T07:46:30.304Z,87.74
2018-02-01T07:48:01.502Z,87.67
2018-02-01T07:49:28.570Z,87.63
2018-02-01T07:50:51.788Z,87.61
2018-02-01T07:52:22.911Z,87.60
2018-02-01T07:53:46.187Z,87.57
2018-02-01T07:55:13.310Z,87.59
2018-02-01T07:56:44.411Z,87.70
2018-02-01T07:58:07.279Z,87.70
2018-02-01T07:59:38.444Z,87.69
2018-02-01T08:01:01.512Z,87.63
2018-02-01T08:02:28.330Z,87.64
2018-02-01T08:03:55.636Z,87.67
2018-02-01T08:05:26.620Z,87.56
2018-02-01T08:06:53.901Z,87.58
2018-02-01T08:08:21.228Z,87.64
2018-02-01T08:09:48.117Z,87.59
2018-02-01T08:11:11.047Z,87.57
2018-02-01T08:12:38.316Z,87.48
2018-02-01T08:14:09.308Z,87.67
2018-02-01T08:15:32.640Z,87.66
2018-02-01T08:16:59.469Z,87.48
2018-02-01T08:18:31.485Z,87.83
2018-02-01T08:19:53.786Z,87.66
2018-02-01T08:21:21.046Z,87.63
2018-02-01T08:22:48.156Z,87.60
2018-02-01T08:24:15.530Z,87.56
2018-02-01T08:25:42.814Z,87.48
2018-02-01T08:27:09.904Z,87.64
2018-02-01T08:28:41.249Z,87.60
2018-02-01T08:30:08.405Z,87.62
2018-02-01T08:31:35.425Z,87.58
2018-02-01T08:33:02.783Z,87.61
2018-02-01T08:34:25.956Z,87.60
2018-02-01T08:35:53.296Z,87.57
2018-02-01T08:37:20.471Z,87.43
2018-02-01T08:38:47.626Z,87.52
2018-02-01T08:40:19.038Z,87.59
2018-02-01T08:41:46.266Z,87.50
2018-02-01T08:43:09.578Z,87.43
2018-02-01T08:44:40.572Z,87.29
2018-02-01T08:46:07.786Z,87.33
2018-02-01T08:47:34.719Z,87.35
2018-02-01T08:48:58.005Z,87.36
2018-02-01T08:50:29.229Z,87.30
2018-02-01T08:51:52.120Z,87.32
2018-02-01T08:53:19.427Z,87.64
2018-02-01T08:54:46.673Z,87.68
2018-02-01T08:56:17.877Z,87.61
2018-02-01T08:57:40.940Z,87.49
2018-02-01T08:59:08.011Z,87.40
2018-02-01T09:00:35.223Z,87.37
2018-02-01T09:02:06.142Z,87.53
2018-02-01T09:03:29.304Z,87.66
2018-02-01T09:04:56.543Z,87.33
2018-02-01T09:06:23.533Z,87.17
2018-02-01T09:07:50.838Z,87.38
2018-02-01T09:09:22.106Z,87.34
2018-02-01T09:10:45.401Z,87.33
2018-02-01T09:12:12.522Z,87.19
2018-02-01T09:13:39.450Z,87.01
2018-02-01T09:15:06.358Z,87.03
2018-02-01T09:16:33.625Z,86.97
2018-02-01T09:18:04.699Z,87.17
2018-02-01T09:19:32.154Z,86.80
2018-02-01T09:20:59.351Z,87.10
2018-02-01T09:22:22.622Z,87.26
2018-02-01T09:23:49.641Z,86.72
2018-02-01T09:25:20.711Z,86.73
2018-02-01T09:26:43.818Z,86.99
2018-02-01T09:28:10.945Z,87.12
2018-02-01T09:29:42.125Z,86.86
2018-02-01T09:31:05.254Z,86.99
2018-02-01T09:32:32.490Z,86.66
2018-02-01T09:33:59.714Z,86.78
2018-02-01T09:35:26.819Z,86.76
2018-02-01T09:36:57.943Z,86.82
2018-02-01T09:38:21.274Z,86.84
2018-02-01T09:39:52.446Z,86.98
2018-02-01T09:41:15.691Z,87.40
2018-02-01T09:42:46.800Z,87.68
2018-02-01T09:44:10.257Z,86.89
2018-02-01T09:45:41.477Z,86.89
2018-02-01T09:47:09.779Z,86.52
2018-02-01T09:48:31.775Z,86.08
2018-02-01T09:50:02.927Z,86.34
2018-02-01T09:51:30.073Z,85.93
2018-02-01T09:52:56.968Z,85.63
2018-02-01T09:54:24.031Z,85.50
2018-02-01T09:55:50.774Z,84.91
2018-02-01T09:57:13.935Z,85.13
2018-02-01T09:58:45.229Z,84.78
2018-02-01T10:00:12.431Z,85.13
2018-02-01T10:01:35.527Z,85.50
2018-02-01T10:03:02.597Z,84.71
2018-02-01T10:04:29.688Z,84.91
2018-02-01T10:05:56.866Z,85.34
2018-02-01T10:07:28.047Z,85.24
2018-02-01T10:08:51.243Z,85.11
2018-02-01T10:10:22.252Z,85.02
2018-02-01T10:11:45.681Z,84.94
2018-02-01T10:13:16.877Z,84.77
2018-02-01T10:14:40.689Z,84.71
2018-02-01T10:16:10.811Z,85.01
2018-02-01T10:17:33.675Z,85.19
2018-02-01T10:19:00.865Z,85.41
2018-02-01T10:20:28.053Z,85.24
2018-02-01T10:21:58.831Z,85.16
2018-02-01T10:23:22.227Z,85.19
2018-02-01T10:24:49.338Z,84.92
2018-02-01T10:26:16.591Z,85.29
2018-02-01T10:27:43.918Z,84.60
2018-02-01T10:29:15.168Z,84.77
2018-02-01T10:30:41.937Z,85.20
2018-02-01T10:32:04.966Z,84.72
2018-02-01T10:33:31.973Z,84.43
2018-02-01T10:35:03.094Z,84.28
2018-02-01T10:36:30.416Z,84.59
2018-02-01T10:37:53.108Z,84.70
2018-02-01T10:39:20.519Z,84.29
2018-02-01T10:40:47.510Z,84.53
2018-02-01T10:42:14.212Z,84.55
2018-02-01T10:43:45.340Z,83.92
2018-02-01T10:45:12.213Z,84.13
2018-02-01T10:46:39.441Z,84.01
2018-02-01T10:48:02.600Z,82.86
2018-02-01T10:49:29.808Z,83.06
2018-02-01T10:50:56.734Z,83.42
2018-02-01T10:52:24.024Z,83.57
2018-02-01T10:53:55.166Z,83.97
2018-02-01T10:55:17.923Z,83.87
2018-02-01T10:56:48.657Z,83.64
2018-02-01T10:58:11.575Z,83.00
2018-02-01T10:59:38.849Z,83.06
2018-02-01T11:01:10.036Z,83.26
2018-02-01T11:02:37.169Z,83.14
2018-02-01T11:04:00.337Z,82.92
2018-02-01T11:05:27.345Z,82.44
2018-02-01T11:06:54.716Z,82.29
2018-02-01T11:08:22.066Z,82.73
2018-02-01T11:09:53.240Z,82.31
2018-02-01T11:11:20.015Z,82.89
2018-02-01T11:12:42.993Z,82.24
2018-02-01T11:14:10.195Z,82.35
2018-02-01T11:15:41.428Z,82.18
2018-02-01T11:17:04.671Z,81.85
2018-02-01T11:18:35.823Z,82.21
2018-02-01T11:19:59.019Z,82.37
2018-02-01T11:21:30.187Z,81.56
2018-02-01T11:22:57.505Z,81.08
2018-02-01T11:24:24.678Z,82.07
2018-02-01T11:25:51.776Z,82.09
2018-02-01T11:27:15.052Z,82.26
2018-02-01T11:28:42.177Z,81.60
2018-02-01T11:30:12.877Z,82.15
2018-02-01T11:31:36.260Z,82.02
2018-02-01T11:33:07.229Z,82.22
2018-02-01T11:34:30.162Z,82.22
2018-02-01T11:36:00.957Z,81.56
2018-02-01T11:37:28.128Z,81.77
2018-02-01T11:38:55.269Z,81.58
2018-02-01T11:40:18.359Z,81.89
2018-02-01T11:41:45.538Z,82.06
2018-02-01T11:43:12.667Z,81.15
2018-02-01T11:44:40.050Z,81.15
2018-02-01T11:46:11.052Z,81.69
2018-02-01T11:47:38.131Z,81.51
2018-02-01T11:49:05.306Z,81.11
2018-02-01T11:50:32.113Z,81.78
2018-02-01T11:51:55.129Z,81.53
2018-02-01T11:53:26.312Z,81.72
2018-02-01T11:54:49.616Z,81.57
2018-02-01T11:56:16.476Z,81.79
2018-02-01T11:57:47.826Z,80.00
2018-02-01T11:59:10.873Z,80.29
2018-02-01T12:00:41.965Z,80.13
2018-02-01T12:02:05.199Z,80.00
2018-02-01T12:03:32.301Z,80.22
2018-02-01T12:05:03.466Z,79.61
2018-02-01T12:06:26.774Z,79.36
2018-02-01T12:07:54.079Z,79.04
2018-02-01T12:09:25.383Z,79.78
2018-02-01T12:10:48.126Z,80.38
2018-02-01T12:12:19.362Z,80.12
2018-02-01T12:13:46.677Z,80.09
2018-02-01T12:15:09.935Z,80.11
2018-02-01T12:16:41.090Z,80.41
2018-02-01T12:18:04.459Z,79.63
2018-02-01T12:19:31.714Z,79.85
2018-02-01T12:20:58.615Z,79.26
2018-02-01T12:22:29.933Z,80.07
2018-02-01T12:23:53.045Z,79.61
2018-02-01T12:25:24.413Z,79.47
2018-02-01T12:26:51.784Z,79.56
2018-02-01T12:28:15.025Z,79.83
2018-02-01T12:29:46.301Z,79.95
2018-02-01T12:31:13.132Z,80.00
2018-02-01T12:32:36.478Z,80.47
2018-02-01T12:34:03.571Z,80.68
2018-02-01T12:35:34.684Z,80.86
2018-02-01T12:36:57.971Z,80.37
2018-02-01T12:38:28.961Z,80.69
2018-02-01T12:39:52.248Z,80.38
2018-02-01T12:41:23.544Z,80.58
2018-02-01T12:42:50.744Z,80.11
2018-02-01T12:44:18.081Z,79.59
2018-02-01T12:45:41.305Z,79.16
2018-02-01T12:47:07.941Z,79.19
2018-02-01T12:48:35.149Z,79.04
2018-02-01T12:50:06.328Z,79.38
2018-02-01T12:51:29.304Z,79.51
2018-02-01T12:53:00.625Z,79.86
2018-02-01T12:54:23.347Z,79.68
2018-02-01T12:55:54.563Z,79.41
2018-02-01T12:57:21.849Z,79.75
2018-02-01T12:58:49.034Z,79.78
2018-02-01T13:00:11.968Z,80.28
2018-02-01T13:01:43.125Z,79.69
2018-02-01T13:03:09.907Z,79.71
2018-02-01T13:04:37.092Z,79.20
2018-02-01T13:05:59.815Z,79.59
2018-02-01T13:07:26.841Z,79.47
2018-02-01T13:08:54.272Z,79.42
2018-02-01T13:10:20.732Z,79.94
2018-02-01T13:11:47.767Z,79.40
2018-02-01T13:13:15.127Z,79.42
2018-02-01T13:14:41.975Z,79.33
2018-02-01T13:16:12.811Z,79.25
2018-02-01T13:17:39.881Z,78.94
2018-02-01T13:19:07.037Z,79.36
2018-02-01T13:20:34.082Z,78.83
2018-02-01T13:22:00.944Z,78.88
2018-02-01T13:23:28.155Z,78.64
2018-02-01T13:24:55.421Z,78.44
2018-02-01T13:26:22.684Z,78.60
2018-02-01T13:27:46.064Z,78.80
2018-02-01T13:29:12.942Z,78.69
2018-02-01T13:30:39.501Z,78.89
2018-02-01T13:32:06.343Z,78.94
2018-02-01T13:33:37.308Z,79.01
2018-02-01T13:35:00.450Z,79.23
2018-02-01T13:36:27.521Z,79.08
2018-02-01T13:37:58.824Z,78.83
2018-02-01T13:39:25.720Z,79.21
2018-02-01T13:40:48.929Z,79.20
2018-02-01T13:42:19.733Z,79.28
2018-02-01T13:43:46.737Z,79.00
2018-02-01T13:45:13.412Z,78.74
2018-02-01T13:46:36.560Z,78.79
2018-02-01T13:48:03.863Z,78.79
2018-02-01T13:49:30.777Z,78.63
2018-02-01T13:51:02.059Z,78.73
2018-02-01T13:52:25.306Z,78.81
2018-02-01T13:53:52.283Z,78.65
2018-02-01T13:55:19.547Z,77.94
2018-02-01T13:56:46.452Z,78.52
2018-02-01T13:58:16.992Z,78.64
2018-02-01T13:59:44.418Z,78.64
2018-02-01T14:01:07.308Z,78.61
2018-02-01T14:02:34.388Z,77.94
2018-02-01T14:04:01.253Z,78.08
2018-02-01T14:05:28.671Z,78.21
2018-02-01T14:06:55.792Z,78.05
2018-02-01T14:08:22.132Z,77.96
2018-02-01T14:09:53.074Z,78.19
2018-02-01T14:11:16.338Z,78.04
2018-02-01T14:12:43.542Z,77.64
2018-02-01T14:14:10.283Z,77.19
2018-02-01T14:15:37.435Z,77.57
2018-02-01T14:17:04.478Z,78.12
2018-02-01T14:18:31.479Z,78.02
2018-02-01T14:20:02.748Z,77.30
2018-02-01T14:21:25.933Z,77.10
2018-02-01T14:22:53.116Z,77.40
2018-02-01T14:24:19.759Z,77.30
2018-02-01T14:25:50.697Z,76.93
2018-02-01T14:27:13.448Z,77.35
2018-02-01T14:28:40.215Z,76.84
2018-02-01T14:30:11.175Z,77.34
2018-02-01T14:31:34.286Z,77.45
2018-02-01T14:33:01.118Z,77.55
2018-02-01T14:34:28.137Z,77.56
2018-02-01T14:35:59.380Z,77.77
2018-02-01T14:37:22.434Z,78.05
2018-02-01T14:38:53.607Z,77.52
2018-02-01T14:40:16.954Z,77.48
2018-02-01T14:41:43.729Z,76.64
2018-02-01T14:43:10.928Z,77.03
2018-02-01T14:44:41.534Z,76.91
2018-02-01T14:46:08.733Z,77.18
2018-02-01T14:47:31.846Z,77.35
2018-02-01T14:49:02.372Z,77.28
2018-02-01T14:50:25.112Z,76.88
2018-02-01T14:51:55.737Z,76.74
2018-02-01T14:53:23.075Z,76.62
2018-02-01T14:54:46.325Z,76.67
2018-02-01T14:56:17.543Z,76.41
2018-02-01T14:57:40.837Z,76.54
2018-02-01T14:59:11.444Z,76.40
2018-02-01T15:00:34.773Z,76.83
2018-02-01T15:02:01.906Z,76.33
2018-02-01T15:03:29.086Z,76.06
2018-02-01T15:04:56.333Z,75.81
2018-02-01T15:06:23.432Z,76.10
2018-02-01T15:07:50.784Z,75.99
2018-02-01T15:09:18.188Z,75.98
2018-02-01T15:10:45.431Z,75.94
2018-02-01T15:12:16.668Z,76.10
2018-02-01T15:13:39.743Z,75.73
2018-02-01T15:15:10.590Z,75.72
2018-02-01T15:16:33.826Z,75.91
2018-02-01T15:18:05.010Z,75.83
2018-02-01T15:19:28.241Z,76.09
2018-02-01T15:20:55.516Z,76.16
2018-02-01T15:22:26.880Z,76.14
2018-02-01T15:23:50.076Z,75.96
2018-02-01T15:25:17.199Z,76.05
2018-02-01T15:26:47.783Z,75.45
2018-02-01T15:28:15.110Z,75.51
2018-02-01T15:29:38.273Z,75.82
2018-02-01T15:31:09.307Z,75.87
2018-02-01T15:32:32.606Z,75.44
2018-02-01T15:33:59.771Z,75.82
2018-02-01T15:35:26.401Z,75.93
2018-02-01T15:36:57.875Z,75.60
2018-02-01T15:38:21.011Z,76.29
2018-02-01T15:39:52.346Z,76.24
2018-02-01T15:41:19.688Z,76.40
2018-02-01T15:42:43.045Z,76.70
2018-02-01T15:44:14.324Z,76.78
2018-02-01T15:45:37.429Z,77.33
2018-02-01T15:47:04.199Z,77.44
2018-02-01T15:48:31.357Z,77.22
2018-02-01T15:49:58.440Z,77.02
2018-02-01T15:51:25.565Z,77.38
2018-02-01T15:52:52.902Z,77.38
2018-02-01T15:54:23.859Z,77.02
2018-02-01T15:55:50.388Z,77.63
2018-02-01T15:57:17.714Z,76.87
2018-02-01T15:58:40.813Z,76.72
2018-02-01T16:00:08.175Z,76.32
2018-02-01T16:01:35.019Z,76.95
2018-02-01T16:03:02.014Z,76.93
2018-02-01T16:04:32.993Z,76.89
2018-02-01T16:05:56.447Z,76.82
2018-02-01T16:07:27.023Z,76.61
2018-02-01T16:08:54.114Z,76.72
2018-02-01T16:10:17.297Z,76.81
2018-02-01T16:11:44.643Z,76.64
2018-02-01T16:13:15.077Z,77.04
2018-02-01T16:14:38.233Z,76.79
2018-02-01T16:16:05.341Z,76.64
2018-02-01T16:17:32.476Z,76.60
2018-02-01T16:19:03.128Z,76.19
2018-02-01T16:20:26.535Z,76.27
2018-02-01T16:21:53.824Z,76.46
2018-02-01T16:23:21.014Z,76.12
2018-02-01T16:24:52.203Z,76.21
2018-02-01T16:26:19.495Z,76.17
2018-02-01T16:27:46.498Z,76.66
2018-02-01T16:29:09.848Z,76.42
2018-02-01T16:30:41.224Z,76.61
2018-02-01T16:32:08.348Z,76.80
2018-02-01T16:33:35.360Z,76.83
2018-02-01T16:35:02.630Z,76.57
2018-02-01T16:36:25.585Z,76.75
2018-02-01T16:37:56.844Z,76.85
2018-02-01T16:39:20.022Z,76.56
2018-02-01T16:40:47.415Z,76.66
2018-02-01T16:42:14.604Z,76.70
2018-02-01T16:43:41.835Z,77.36
2018-02-01T16:45:08.806Z,77.24
2018-02-01T16:46:39.975Z,76.93
2018-02-01T16:48:03.290Z,77.06
2018-02-01T16:49:34.444Z,76.92
2018-02-01T16:50:57.781Z,77.07
2018-02-01T16:52:25.021Z,77.28
2018-02-01T16:53:55.707Z,77.80
2018-02-01T16:55:23.188Z,77.75
2018-02-01T16:56:45.817Z,78.02
2018-02-01T16:58:17.043Z,77.84
2018-02-01T16:59:39.985Z,78.07
2018-02-01T17:01:07.297Z,78.10
2018-02-01T17:02:34.479Z,78.17
2018-02-01T17:04:05.655Z,78.31
2018-02-01T17:05:28.681Z,78.22
2018-02-01T17:06:56.063Z,78.20
2018-02-01T17:08:23.418Z,78.08
2018-02-01T17:09:50.167Z,77.77
2018-02-01T17:11:21.276Z,78.00
2018-02-01T17:12:44.044Z,77.99
2018-02-01T17:14:14.715Z,78.25
2018-02-01T17:15:41.888Z,78.18
2018-02-01T17:17:05.046Z,78.39
2018-02-01T17:18:36.045Z,77.96
2018-02-01T17:19:58.955Z,77.93
2018-02-01T17:21:25.374Z,78.09
2018-02-01T17:22:52.771Z,77.84
2018-02-01T17:24:20.146Z,77.28
2018-02-01T17:25:51.506Z,77.48
2018-02-01T17:27:17.962Z,77.48
2018-02-01T17:28:40.993Z,77.30
2018-02-01T17:30:12.348Z,77.19
2018-02-01T17:31:39.165Z,77.11
2018-02-01T17:33:06.042Z,77.18
2018-02-01T17:34:29.385Z,76.99
2018-02-01T17:36:00.465Z,76.61
2018-02-01T17:37:23.132Z,76.64
2018-02-01T17:38:54.406Z,76.38
2018-02-01T17:40:21.232Z,76.53
2018-02-01T17:41:44.354Z,76.58
2018-02-01T17:43:14.859Z,76.39
2018-02-01T17:44:42.093Z,76.55
2018-02-01T17:46:04.982Z,76.45
2018-02-01T17:47:35.993Z,76.90
2018-02-01T17:48:59.137Z,76.94
2018-02-01T17:50:26.462Z,77.24
2018-02-01T17:51:53.501Z,77.41
2018-02-01T17:53:20.756Z,77.24
2018-02-01T17:54:52.283Z,77.45
2018-02-01T17:56:15.378Z,77.42
2018-02-01T17:57:46.588Z,77.78
2018-02-01T17:59:09.934Z,77.96
2018-02-01T18:00:36.731Z,78.05
2018-02-01T18:02:04.094Z,78.00
2018-02-01T18:03:31.083Z,78.06
2018-02-01T18:04:58.007Z,78.08
2018-02-01T18:06:29.260Z,78.11
2018-02-01T18:07:56.219Z,78.46
2018-02-01T18:09:18.839Z,78.26
2018-02-01T18:10:46.125Z,78.62
2018-02-01T18:12:12.733Z,78.40
2018-02-01T18:13:39.887Z,78.53
2018-02-01T18:15:06.360Z,78.66
2018-02-01T18:16:37.201Z,78.63
2018-02-01T18:18:00.074Z,79.00
2018-02-01T18:19:27.345Z,79.20
2018-02-01T18:20:58.722Z,79.47
2018-02-01T18:22:25.991Z,79.70
2018-02-01T18:23:48.784Z,80.06
2018-02-01T18:25:15.876Z,80.13
2018-02-01T18:26:46.718Z,80.44
2018-02-01T18:28:10.087Z,80.42
2018-02-01T18:29:41.114Z,80.72
2018-02-01T18:31:08.362Z,80.91
2018-02-01T18:32:35.386Z,81.03
2018-02-01T18:33:58.658Z,81.24
2018-02-01T18:35:29.969Z,81.22
2018-02-01T18:36:52.933Z,81.54
2018-02-01T18:38:20.006Z,81.66
2018-02-01T18:39:51.244Z,81.80
2018-02-01T18:41:18.493Z,82.04